createdAt,value
2019-01-13T00:01:00.811Z,5.00
2019-01-13T00:05:05.867Z,4.63
2019-01-13T00:09:09.710Z,5.40
2019-01-13T00:13:13.886Z,6.33
2019-01-13T00:17:17.952Z,5.40
2019-01-13T00:21:21.375Z,4.37
2019-01-13T00:25:24.670Z,4.40
2019-01-13T00:29:28.471Z,3.50
2019-01-13T00:33:32.495Z,4.63
2019-01-13T00:37:35.900Z,4.10
2019-01-13T00:41:39.242Z,3.57
2019-01-13T00:45:42.615Z,4.17
2019-01-13T00:49:45.953Z,5.50
2019-01-13T00:53:49.316Z,5.30
2019-01-13T00:57:53.369Z,6.83
2019-01-13T01:01:56.866Z,5.10
2019-01-13T01:06:00.270Z,4.40
2019-01-13T01:10:05.447Z,4.60
2019-01-13T01:14:08.853Z,3.50
2019-01-13T01:18:12.755Z,4.50
2019-01-13T01:22:16.100Z,3.83
2019-01-13T01:26:19.559Z,5.20
2019-01-13T01:30:22.903Z,6.33
2019-01-13T01:34:27.438Z,4.50
2019-01-13T01:38:30.969Z,5.37
2019-01-13T01:42:34.298Z,4.60
2019-01-13T01:46:37.578Z,4.53
2019-01-13T01:50:41.467Z,5.70
2019-01-13T01:54:44.754Z,4.60
2019-01-13T01:58:48.494Z,5.10
2019-01-13T02:02:51.870Z,6.40
2019-01-13T02:06:56.105Z,6.57
2019-01-13T02:10:59.775Z,5.20
2019-01-13T02:15:03.998Z,5.37
2019-01-13T02:19:07.353Z,6.63
2019-01-13T02:23:10.664Z,4.73
2019-01-13T02:27:14.210Z,6.13
2019-01-13T02:31:17.773Z,6.90
2019-01-13T02:35:21.504Z,6.30
2019-01-13T02:39:25.059Z,7.93
2019-01-13T02:43:28.810Z,8.20
2019-01-13T02:47:32.122Z,7.97
2019-01-13T02:51:35.407Z,9.30
2019-01-13T02:55:38.715Z,9.23
2019-01-13T02:59:42.000Z,9.20
2019-01-13T03:03:45.298Z,9.77
2019-01-13T03:07:49.304Z,8.80
2019-01-13T03:11:53.178Z,9.33
2019-01-13T03:15:56.470Z,11.80
2019-01-13T03:20:00.286Z,10.60
2019-01-13T03:24:04.255Z,10.80
2019-01-13T03:28:07.564Z,11.37
2019-01-13T03:32:10.850Z,13.73
2019-01-13T03:36:14.230Z,12.73
2019-01-13T03:40:18.562Z,13.13
2019-01-13T03:44:22.814Z,13.17
2019-01-13T03:48:26.835Z,13.47
2019-01-13T03:52:30.154Z,13.50
2019-01-13T03:56:33.441Z,13.80
2019-01-13T04:00:37.200Z,14.70
2019-01-13T04:04:40.495Z,16.20
2019-01-13T04:08:44.306Z,16.10
2019-01-13T04:12:47.666Z,14.73
2019-01-13T04:16:51.152Z,16.03
2019-01-13T04:20:54.431Z,16.50
2019-01-13T04:24:57.735Z,15.80
2019-01-13T04:29:01.324Z,14.93
2019-01-13T04:33:05.150Z,16.40
2019-01-13T04:37:08.870Z,14.07
2019-01-13T04:41:12.179Z,14.50
2019-01-13T04:45:15.999Z,12.60
2019-01-13T04:49:20.051Z,13.43
2019-01-13T04:53:24.098Z,15.60
2019-01-13T04:57:27.402Z,15.93
2019-01-13T05:01:34.711Z,15.70
2019-01-13T05:05:36.987Z,14.10
2019-01-13T05:09:40.266Z,14.03
2019-01-13T05:13:43.854Z,11.53
2019-01-13T05:17:47.435Z,10.77
2019-01-13T05:21:51.178Z,9.57
2019-01-13T05:25:54.519Z,9.03
2019-01-13T05:29:58.266Z,7.07
2019-01-13T05:34:01.991Z,6.27
2019-01-13T05:38:05.298Z,6.23
2019-01-13T05:42:08.876Z,5.67
2019-01-13T05:46:13.455Z,5.10
2019-01-13T05:50:18.838Z,5.33
2019-01-13T05:54:22.582Z,5.33
2019-01-13T05:58:25.858Z,4.57
2019-01-13T06:02:29.166Z,4.40
2019-01-13T06:06:32.970Z,4.50
2019-01-13T06:10:36.278Z,5.23
2019-01-13T06:14:39.811Z,6.00
2019-01-13T06:18:43.106Z,6.50
2019-01-13T06:22:46.467Z,7.77
2019-01-13T06:26:50.031Z,6.67
2019-01-13T06:30:53.386Z,7.37
2019-01-13T06:34:57.139Z,9.77
2019-01-13T06:39:00.410Z,8.33
2019-01-13T06:43:03.714Z,8.40
2019-01-13T06:47:07.930Z,10.00
2019-01-13T06:51:11.668Z,9.20
2019-01-13T06:55:15.470Z,10.00
2019-01-13T06:59:18.784Z,10.80
2019-01-13T07:03:22.140Z,10.93
2019-01-13T07:07:25.442Z,9.80
2019-01-13T07:11:28.732Z,9.67
2019-01-13T07:15:32.030Z,9.10
2019-01-13T07:19:35.319Z,7.50
2019-01-13T07:23:38.610Z,10.53
2019-01-13T07:27:42.972Z,7.40
2019-01-13T07:31:46.706Z,5.50
2019-01-13T07:35:50.168Z,8.37
2019-01-13T07:39:53.906Z,8.63
2019-01-13T07:43:57.622Z,7.63
2019-01-13T07:48:01.261Z,10.77
2019-01-13T07:52:04.642Z,9.30
2019-01-13T07:56:07.946Z,9.60
2019-01-13T08:00:15.803Z,8.70
2019-01-13T08:04:19.345Z,10.93
2019-01-13T08:08:22.703Z,11.07
2019-01-13T08:12:26.018Z,10.07
2019-01-13T08:16:29.298Z,9.57
2019-01-13T08:20:33.824Z,8.30
2019-01-13T08:24:37.582Z,8.53
2019-01-13T08:28:40.891Z,11.20
2019-01-13T08:32:44.254Z,8.73
2019-01-13T08:36:47.832Z,7.90
2019-01-13T08:40:51.118Z,9.00
2019-01-13T08:44:54.938Z,8.60
2019-01-13T08:48:59.130Z,8.63
2019-01-13T08:53:02.438Z,10.73
2019-01-13T08:57:05.735Z,9.50
2019-01-13T09:01:09.047Z,12.00
2019-01-13T09:05:12.843Z,10.03
2019-01-13T09:09:16.158Z,9.43
2019-01-13T09:13:19.870Z,9.10
2019-01-13T09:17:23.173Z,9.13
2019-01-13T09:21:26.447Z,9.53
2019-01-13T09:25:30.746Z,9.63
2019-01-13T09:29:34.149Z,8.50
2019-01-13T09:33:37.482Z,8.70
2019-01-13T09:37:40.838Z,9.07
2019-01-13T09:41:44.910Z,8.70
2019-01-13T09:45:48.199Z,7.60
2019-01-13T09:49:51.967Z,8.80
2019-01-13T09:53:55.678Z,9.30
2019-01-13T09:57:59.062Z,10.53
2019-01-13T10:02:02.347Z,9.87
2019-01-13T10:06:05.670Z,8.27
2019-01-13T10:10:09.513Z,9.03
2019-01-13T10:14:12.830Z,10.07
2019-01-13T10:18:16.614Z,11.50
2019-01-13T10:22:20.647Z,9.73
2019-01-13T10:26:23.952Z,10.73
2019-01-13T10:30:30.095Z,11.17
2019-01-13T10:34:33.806Z,9.10
2019-01-13T10:38:37.554Z,8.67
2019-01-13T10:42:40.902Z,7.83
2019-01-13T10:46:44.231Z,8.30
2019-01-13T10:50:47.614Z,9.27
2019-01-13T10:54:50.918Z,8.87
2019-01-13T10:58:54.442Z,7.07
2019-01-13T11:03:01.982Z,8.93
2019-01-13T11:07:02.910Z,8.90
2019-01-13T11:11:06.231Z,9.60
2019-01-13T11:15:09.850Z,8.00
2019-01-13T11:19:13.218Z,9.50
2019-01-13T11:23:16.622Z,8.70
2019-01-13T11:27:20.466Z,8.57
2019-01-13T11:31:23.758Z,7.13
2019-01-13T11:35:27.505Z,7.40
2019-01-13T11:39:30.795Z,7.07
2019-01-13T11:43:34.121Z,11.00
2019-01-13T11:47:37.436Z,6.70
2019-01-13T11:51:41.207Z,7.77
2019-01-13T11:55:44.927Z,6.77
2019-01-13T11:59:48.756Z,5.97
2019-01-13T12:03:52.134Z,6.70
2019-01-13T12:07:55.879Z,6.50
2019-01-13T12:11:59.171Z,7.23
2019-01-13T12:16:02.472Z,7.33
2019-01-13T12:20:05.932Z,6.30
2019-01-13T12:24:09.246Z,7.37
2019-01-13T12:28:12.530Z,7.33
2019-01-13T12:32:16.275Z,7.10
2019-01-13T12:36:19.555Z,8.17
2019-01-13T12:40:24.447Z,7.57
2019-01-13T12:44:27.775Z,6.73
2019-01-13T12:48:31.518Z,8.20
2019-01-13T12:52:34.814Z,8.80
2019-01-13T12:56:38.114Z,8.03
2019-01-13T13:00:41.471Z,8.60
2019-01-13T13:04:44.779Z,7.87
2019-01-13T13:08:48.064Z,9.30
2019-01-13T13:12:51.380Z,10.33
2019-01-13T13:16:54.650Z,7.73
2019-01-13T13:20:58.378Z,8.33
2019-01-13T13:25:01.669Z,9.00
2019-01-13T13:29:05.514Z,8.07
2019-01-13T13:33:09.682Z,7.80
2019-01-13T13:37:13.322Z,7.50
2019-01-13T13:41:16.609Z,5.87
2019-01-13T13:45:21.014Z,6.57
2019-01-13T13:49:24.294Z,5.60
2019-01-13T13:53:28.431Z,6.90
2019-01-13T13:57:31.711Z,6.23
2019-01-13T14:01:35.042Z,6.50
2019-01-13T14:05:38.770Z,5.17
2019-01-13T14:09:42.843Z,4.70
2019-01-13T14:13:46.203Z,5.67
2019-01-13T14:17:49.514Z,6.60
2019-01-13T14:21:52.794Z,6.37
2019-01-13T14:25:56.182Z,4.83
2019-01-13T14:29:59.476Z,3.90
2019-01-13T14:34:02.890Z,3.80
2019-01-13T14:38:06.247Z,5.93
2019-01-13T14:42:09.628Z,4.83
2019-01-13T14:46:12.917Z,3.73
2019-01-13T14:50:20.259Z,4.63
2019-01-13T14:54:23.578Z,4.23
2019-01-13T14:58:27.549Z,7.00
2019-01-13T15:02:30.830Z,4.40
2019-01-13T15:06:34.223Z,5.70
2019-01-13T15:10:37.848Z,5.07
2019-01-13T15:14:41.162Z,4.30
2019-01-13T15:18:44.446Z,4.10
2019-01-13T15:22:48.182Z,4.73
2019-01-13T15:26:51.674Z,5.00
2019-01-13T15:30:55.051Z,5.37
2019-01-13T15:34:58.390Z,5.03
2019-01-13T15:39:01.697Z,5.93
2019-01-13T15:43:05.995Z,3.93
2019-01-13T15:47:09.302Z,4.40
2019-01-13T15:51:12.674Z,4.70
2019-01-13T15:55:16.170Z,4.23
2019-01-13T15:59:19.734Z,5.50
2019-01-13T16:03:23.042Z,6.57
2019-01-13T16:07:26.326Z,4.20
2019-01-13T16:11:30.062Z,3.50
2019-01-13T16:15:34.366Z,4.53
2019-01-13T16:19:39.317Z,5.17
2019-01-13T16:23:42.730Z,5.67
2019-01-13T16:27:46.050Z,3.93
2019-01-13T16:31:49.770Z,3.80
2019-01-13T16:35:53.074Z,5.83
2019-01-13T16:39:56.599Z,4.80
2019-01-13T16:44:00.459Z,5.60
2019-01-13T16:48:04.129Z,4.53
2019-01-13T16:52:07.406Z,4.33
2019-01-13T16:56:10.732Z,4.23
2019-01-13T17:00:17.192Z,5.10
2019-01-13T17:04:21.271Z,4.03
2019-01-13T17:08:25.010Z,5.17
2019-01-13T17:12:28.302Z,3.90
2019-01-13T17:16:32.038Z,4.80
2019-01-13T17:20:36.110Z,4.63
2019-01-13T17:24:39.426Z,5.00
2019-01-13T17:28:42.714Z,5.40
2019-01-13T17:32:46.031Z,6.10
2019-01-13T17:36:49.826Z,6.50
2019-01-13T17:40:53.126Z,6.67
2019-01-13T17:44:56.863Z,4.53
2019-01-13T17:49:00.902Z,5.97
2019-01-13T17:53:05.190Z,5.07
2019-01-13T17:57:08.526Z,5.33
2019-01-13T18:01:15.418Z,7.07
2019-01-13T18:05:18.723Z,4.57
2019-01-13T18:09:22.006Z,5.80
2019-01-13T18:13:25.751Z,4.77
2019-01-13T18:17:29.034Z,4.97
2019-01-13T18:21:32.695Z,5.60
2019-01-13T18:25:36.546Z,6.07
2019-01-13T18:29:40.291Z,5.90
2019-01-13T18:33:43.579Z,4.53
2019-01-13T18:37:47.399Z,6.57
2019-01-13T18:41:51.035Z,5.77
2019-01-13T18:45:54.367Z,5.70
2019-01-13T18:49:58.349Z,5.00
2019-01-13T18:54:01.654Z,4.93
2019-01-13T18:58:05.274Z,5.50
2019-01-13T19:02:08.574Z,5.97
2019-01-13T19:06:11.990Z,5.33
2019-01-13T19:10:21.711Z,4.23
2019-01-13T19:14:35.362Z,4.60
2019-01-13T19:18:39.239Z,5.97
2019-01-13T19:22:45.392Z,5.03
2019-01-13T19:26:49.042Z,5.30
2019-01-13T19:30:52.322Z,5.53
2019-01-13T19:34:57.087Z,6.80
2019-01-13T19:39:00.407Z,4.90
2019-01-13T19:43:03.831Z,6.77
2019-01-13T19:47:07.313Z,4.10
2019-01-13T19:51:10.859Z,5.37
2019-01-13T19:55:15.958Z,5.40
2019-01-13T19:59:19.574Z,4.90
2019-01-13T20:03:22.906Z,7.70
2019-01-13T20:07:26.442Z,4.40
2019-01-13T20:11:29.926Z,4.40
2019-01-13T20:15:33.990Z,4.33
2019-01-13T20:19:37.337Z,4.33
2019-01-13T20:23:40.666Z,4.53
2019-01-13T20:27:44.068Z,5.57
2019-01-13T20:31:47.971Z,5.80
2019-01-13T20:35:51.295Z,5.20
2019-01-13T20:39:54.640Z,5.80
2019-01-13T20:43:58.540Z,4.87
2019-01-13T20:48:01.923Z,5.00
2019-01-13T20:52:06.132Z,5.87
2019-01-13T20:56:10.106Z,6.60
2019-01-13T21:00:20.653Z,4.30
2019-01-13T21:04:24.158Z,6.47
2019-01-13T21:08:27.510Z,4.20
2019-01-13T21:12:30.885Z,5.20
2019-01-13T21:16:34.220Z,6.53
2019-01-13T21:20:37.555Z,5.40
2019-01-13T21:24:40.936Z,4.50
2019-01-13T21:28:44.780Z,4.57
2019-01-13T21:32:48.485Z,3.90
2019-01-13T21:36:51.911Z,4.33
2019-01-13T21:40:55.758Z,5.87
2019-01-13T21:44:59.266Z,3.90
2019-01-13T21:49:02.732Z,7.00
2019-01-13T21:53:06.203Z,4.57
2019-01-13T21:57:09.972Z,5.03
2019-01-13T22:01:14.699Z,5.17
2019-01-13T22:05:19.020Z,5.90
2019-01-13T22:09:23.148Z,5.83
2019-01-13T22:13:26.596Z,4.30
2019-01-13T22:17:30.043Z,4.97
2019-01-13T22:21:33.375Z,5.30
2019-01-13T22:25:36.742Z,4.90
2019-01-13T22:29:40.097Z,4.60
2019-01-13T22:33:43.465Z,2.00
2019-01-13T22:37:46.886Z,3.20
2019-01-13T22:41:50.235Z,3.10
2019-01-13T22:45:54.365Z,2.40
2019-01-13T22:49:58.243Z,3.37
2019-01-13T22:54:01.566Z,3.47
2019-01-13T22:58:05.419Z,4.53
2019-01-13T23:02:09.360Z,2.70
2019-01-13T23:06:12.702Z,4.90
2019-01-13T23:10:16.027Z,3.87
2019-01-13T23:14:19.355Z,4.73
2019-01-13T23:18:23.201Z,4.70
2019-01-13T23:22:26.526Z,3.20
2019-01-13T23:26:29.872Z,2.90
2019-01-13T23:30:33.199Z,2.70
2019-01-13T23:34:36.518Z,2.63
2019-01-13T23:38:40.312Z,2.03
2019-01-13T23:42:43.727Z,2.33
2019-01-13T23:46:47.496Z,2.20
2019-01-13T23:50:51.336Z,2.30
2019-01-13T23:54:54.724Z,2.33
2019-01-13T23:58:58.078Z,2.57
